createdAt,value
2024-03-23T00:00:31.275Z,62.79
2024-03-23T00:02:57.588Z,62.76
2024-03-23T00:05:23.968Z,62.77
2024-03-23T00:07:50.276Z,62.67
2024-03-23T00:10:16.580Z,62.71
2024-03-23T00:12:42.956Z,62.76
2024-03-23T00:15:09.243Z,62.71
2024-03-23T00:17:35.574Z,62.81
2024-03-23T00:20:01.900Z,62.85
2024-03-23T00:22:28.203Z,62.75
2024-03-23T00:24:54.620Z,62.77
2024-03-23T00:27:20.916Z,62.68
2024-03-23T00:29:47.216Z,62.68
2024-03-23T00:32:13.522Z,62.59
2024-03-23T00:34:39.848Z,62.60
2024-03-23T00:37:06.178Z,62.62
2024-03-23T00:39:32.481Z,62.63
2024-03-23T00:42:01.326Z,62.55
2024-03-23T00:44:27.837Z,62.55
2024-03-23T00:46:54.278Z,62.61
2024-03-23T00:49:20.726Z,62.71
2024-03-23T00:51:47.032Z,62.78
2024-03-23T00:54:13.340Z,62.70
2024-03-23T00:56:39.639Z,62.68
2024-03-23T00:59:05.986Z,62.66
2024-03-23T01:01:32.304Z,62.70
2024-03-23T01:03:58.601Z,62.79
2024-03-23T01:06:24.926Z,62.90
2024-03-23T01:08:51.277Z,62.93
2024-03-23T01:11:17.624Z,62.90
2024-03-23T01:13:43.944Z,62.87
2024-03-23T01:16:10.271Z,62.91
2024-03-23T01:18:36.605Z,62.98
2024-03-23T01:21:02.900Z,62.97
2024-03-23T01:23:29.207Z,62.96
2024-03-23T01:25:55.502Z,63.01
2024-03-23T01:28:21.805Z,63.03
2024-03-23T01:30:48.109Z,62.95
2024-03-23T01:33:14.414Z,62.85
2024-03-23T01:35:40.723Z,62.72
2024-03-23T01:38:07.040Z,62.69
2024-03-23T01:40:33.360Z,62.73
2024-03-23T01:42:59.679Z,62.64
2024-03-23T01:45:25.993Z,62.75
2024-03-23T01:47:52.318Z,62.71
2024-03-23T01:50:18.619Z,62.78
2024-03-23T01:52:44.926Z,62.66
2024-03-23T01:55:11.226Z,62.59
2024-03-23T01:57:37.540Z,62.61
2024-03-23T02:00:03.843Z,62.62
2024-03-23T02:02:30.157Z,62.66
2024-03-23T02:04:56.509Z,62.78
2024-03-23T02:07:22.850Z,62.92
2024-03-23T02:09:49.189Z,62.92
2024-03-23T02:12:15.551Z,62.94
2024-03-23T02:14:41.881Z,62.87
2024-03-23T02:17:08.193Z,62.81
2024-03-23T02:19:34.524Z,62.85
2024-03-23T02:22:00.847Z,62.93
2024-03-23T02:24:27.184Z,62.94
2024-03-23T02:26:53.523Z,62.95
2024-03-23T02:29:19.835Z,62.98
2024-03-23T02:31:46.213Z,62.87
2024-03-23T02:34:12.533Z,62.92
2024-03-23T02:36:38.861Z,63.02
2024-03-23T02:39:05.187Z,63.08
2024-03-23T02:41:31.480Z,63.07
2024-03-23T02:43:57.820Z,63.15
2024-03-23T02:46:24.128Z,63.26
2024-03-23T02:48:50.482Z,63.34
2024-03-23T02:51:16.794Z,63.17
2024-03-23T02:53:43.122Z,63.14
2024-03-23T02:56:09.464Z,63.24
2024-03-23T02:58:35.797Z,63.35
2024-03-23T03:01:02.123Z,63.50
2024-03-23T03:03:28.485Z,63.34
2024-03-23T03:05:54.797Z,63.31
2024-03-23T03:08:21.159Z,63.38
2024-03-23T03:10:47.455Z,63.31
2024-03-23T03:13:13.761Z,63.37
2024-03-23T03:15:40.062Z,63.51
2024-03-23T03:18:06.351Z,63.51
2024-03-23T03:20:32.757Z,63.48
2024-03-23T03:22:59.096Z,63.25
2024-03-23T03:25:25.429Z,63.30
2024-03-23T03:27:51.774Z,63.45
2024-03-23T03:30:18.105Z,63.68
2024-03-23T03:32:44.435Z,63.65
2024-03-23T03:35:10.743Z,63.88
2024-03-23T03:37:37.107Z,63.82
2024-03-23T03:40:03.405Z,64.02
2024-03-23T03:42:29.789Z,63.90
2024-03-23T03:44:56.158Z,63.95
2024-03-23T03:47:22.510Z,63.95
2024-03-23T03:49:48.822Z,64.32
2024-03-23T03:52:15.131Z,64.17
2024-03-23T03:54:41.453Z,64.17
2024-03-23T03:57:07.768Z,64.30
2024-03-23T03:59:34.129Z,64.32
2024-03-23T04:02:00.449Z,64.43
2024-03-23T04:04:26.999Z,64.57
2024-03-23T04:06:53.330Z,64.73
2024-03-23T04:09:19.643Z,64.86
2024-03-23T04:11:45.933Z,64.91
2024-03-23T04:14:12.235Z,65.13
2024-03-23T04:16:38.541Z,65.16
2024-03-23T04:19:04.877Z,65.29
2024-03-23T04:21:31.232Z,65.41
2024-03-23T04:23:57.667Z,65.32
2024-03-23T04:26:23.989Z,65.43
2024-03-23T04:28:50.304Z,65.66
2024-03-23T04:31:16.642Z,65.46
2024-03-23T04:33:42.959Z,65.29
2024-03-23T04:36:09.296Z,65.40
2024-03-23T04:38:35.693Z,65.32
2024-03-23T04:41:02.050Z,65.48
2024-03-23T04:43:28.417Z,65.65
2024-03-23T04:45:54.748Z,65.78
2024-03-23T04:48:21.067Z,66.02
2024-03-23T04:50:47.422Z,65.90
2024-03-23T04:53:13.764Z,66.02
2024-03-23T04:55:40.055Z,65.94
2024-03-23T04:58:06.547Z,65.86
2024-03-23T05:00:32.897Z,65.91
2024-03-23T05:02:59.237Z,65.98
2024-03-23T05:05:25.550Z,65.43
2024-03-23T05:07:51.875Z,65.55
2024-03-23T05:10:18.220Z,65.77
2024-03-23T05:12:44.534Z,65.99
2024-03-23T05:15:10.861Z,66.17
2024-03-23T05:17:37.261Z,66.21
2024-03-23T05:20:03.586Z,66.31
2024-03-23T05:22:29.911Z,66.65
2024-03-23T05:24:56.264Z,66.24
2024-03-23T05:27:22.559Z,65.88
2024-03-23T05:29:48.853Z,65.73
2024-03-23T05:32:15.142Z,65.92
2024-03-23T05:34:41.438Z,66.30
2024-03-23T05:37:08.012Z,66.01
2024-03-23T05:39:34.343Z,65.95
2024-03-23T05:42:00.640Z,65.91
2024-03-23T05:44:26.969Z,66.11
2024-03-23T05:46:53.285Z,66.09
2024-03-23T05:49:19.581Z,66.25
2024-03-23T05:51:45.938Z,66.41
2024-03-23T05:54:12.239Z,66.27
2024-03-23T05:56:38.723Z,66.29
2024-03-23T05:59:05.022Z,66.45
2024-03-23T06:01:31.340Z,66.46
2024-03-23T06:03:57.665Z,66.50
2024-03-23T06:06:23.992Z,66.68
2024-03-23T06:08:50.336Z,66.70
2024-03-23T06:11:16.656Z,66.69
2024-03-23T06:13:42.957Z,66.69
2024-03-23T06:16:09.451Z,66.73
2024-03-23T06:18:35.778Z,66.80
2024-03-23T06:21:02.075Z,66.88
2024-03-23T06:23:28.416Z,66.85
2024-03-23T06:25:54.775Z,66.88
2024-03-23T06:28:21.083Z,66.77
2024-03-23T06:30:47.446Z,66.69
2024-03-23T06:33:13.740Z,66.55
2024-03-23T06:35:40.136Z,66.64
2024-03-23T06:38:06.617Z,66.50
2024-03-23T06:40:33.001Z,66.43
2024-03-23T06:42:59.320Z,66.59
2024-03-23T06:45:25.639Z,66.23
2024-03-23T06:47:51.957Z,66.29
2024-03-23T06:50:18.266Z,66.19
2024-03-23T06:52:44.569Z,66.15
2024-03-23T06:55:11.141Z,66.16
2024-03-23T06:57:37.483Z,66.36
2024-03-23T07:00:06.200Z,66.56
2024-03-23T07:02:32.570Z,66.71
2024-03-23T07:04:58.881Z,66.46
2024-03-23T07:07:25.213Z,66.32
2024-03-23T07:09:51.738Z,66.27
2024-03-23T07:12:18.063Z,66.18
2024-03-23T07:14:44.384Z,66.16
2024-03-23T07:17:10.736Z,66.31
2024-03-23T07:19:37.076Z,66.23
2024-03-23T07:22:03.401Z,66.13
2024-03-23T07:24:29.712Z,66.19
2024-03-23T07:26:56.024Z,66.19
2024-03-23T07:29:22.341Z,66.17
2024-03-23T07:31:48.673Z,66.09
2024-03-23T07:34:14.995Z,66.11
2024-03-23T07:36:41.316Z,66.01
2024-03-23T07:39:12.976Z,65.88
2024-03-23T07:41:39.667Z,65.83
2024-03-23T07:44:05.994Z,65.89
2024-03-23T07:46:32.321Z,65.85
2024-03-23T07:48:58.656Z,65.73
2024-03-23T07:51:24.986Z,65.55
2024-03-23T07:53:51.317Z,65.53
2024-03-23T07:56:17.636Z,65.58
2024-03-23T07:58:44.147Z,65.45
2024-03-23T08:01:10.485Z,65.30
2024-03-23T08:03:39.744Z,65.22
2024-03-23T08:06:06.055Z,65.28
2024-03-23T08:08:32.481Z,65.29
2024-03-23T08:10:58.790Z,64.93
2024-03-23T08:13:25.090Z,64.85
2024-03-23T08:15:51.426Z,64.71
2024-03-23T08:18:17.774Z,64.53
2024-03-23T08:20:44.230Z,64.53
2024-03-23T08:23:10.563Z,64.69
2024-03-23T08:25:36.937Z,64.64
2024-03-23T08:28:03.263Z,64.62
2024-03-23T08:30:29.591Z,64.65
2024-03-23T08:32:55.919Z,64.80
2024-03-23T08:35:22.243Z,64.78
2024-03-23T08:37:48.559Z,64.80
2024-03-23T08:40:14.944Z,64.80
2024-03-23T08:42:41.314Z,64.80
2024-03-23T08:45:07.616Z,64.78
2024-03-23T08:47:33.939Z,64.49
2024-03-23T08:50:00.367Z,64.41
2024-03-23T08:52:26.806Z,64.23
2024-03-23T08:54:53.117Z,64.19
2024-03-23T08:57:19.435Z,64.20
2024-03-23T08:59:45.748Z,64.10
2024-03-23T09:02:12.154Z,63.87
2024-03-23T09:04:38.573Z,63.73
2024-03-23T09:07:04.887Z,63.39
2024-03-23T09:09:31.217Z,63.29
2024-03-23T09:11:57.552Z,63.00
2024-03-23T09:14:24.012Z,62.87
2024-03-23T09:16:50.358Z,63.05
2024-03-23T09:19:18.271Z,63.21
2024-03-23T09:21:44.572Z,62.87
2024-03-23T09:24:10.891Z,62.62
2024-03-23T09:26:37.267Z,62.54
2024-03-23T09:29:03.605Z,62.16
2024-03-23T09:31:29.921Z,62.32
2024-03-23T09:33:56.275Z,62.55
2024-03-23T09:36:22.586Z,62.65
2024-03-23T09:38:49.185Z,62.54
2024-03-23T09:41:15.529Z,62.13
2024-03-23T09:43:41.864Z,62.16
2024-03-23T09:46:08.160Z,61.87
2024-03-23T09:48:34.507Z,61.58
2024-03-23T09:51:00.850Z,61.95
2024-03-23T09:53:27.273Z,62.50
2024-03-23T09:55:53.584Z,62.60
2024-03-23T09:58:20.004Z,62.56
2024-03-23T10:00:46.354Z,62.41
2024-03-23T10:03:12.647Z,62.17
2024-03-23T10:05:41.771Z,62.14
2024-03-23T10:08:11.301Z,61.94
2024-03-23T10:10:37.622Z,61.61
2024-03-23T10:13:03.948Z,61.74
2024-03-23T10:15:30.366Z,61.60
2024-03-23T10:17:56.797Z,61.54
2024-03-23T10:20:23.108Z,61.22
2024-03-23T10:22:49.441Z,61.01
2024-03-23T10:25:15.891Z,61.03
2024-03-23T10:27:42.238Z,60.89
2024-03-23T10:30:08.560Z,60.53
2024-03-23T10:32:34.914Z,60.36
2024-03-23T10:35:01.271Z,60.27
2024-03-23T10:37:27.598Z,60.21
2024-03-23T10:39:53.898Z,60.24
2024-03-23T10:42:20.344Z,60.41
2024-03-23T10:44:46.680Z,60.25
2024-03-23T10:47:13.011Z,60.18
2024-03-23T10:49:39.351Z,59.99
2024-03-23T10:52:05.732Z,59.96
2024-03-23T10:54:32.120Z,59.89
2024-03-23T10:56:58.491Z,59.64
2024-03-23T10:59:24.823Z,58.96
2024-03-23T11:01:51.196Z,57.63
2024-03-23T11:04:17.522Z,58.81
2024-03-23T11:06:43.904Z,58.90
2024-03-23T11:09:10.241Z,61.40
2024-03-23T11:11:36.571Z,63.31
2024-03-23T11:14:02.864Z,62.80
2024-03-23T11:16:29.189Z,61.76
2024-03-23T11:18:55.510Z,61.33
2024-03-23T11:21:21.907Z,60.47
2024-03-23T11:23:48.227Z,60.17
2024-03-23T11:26:14.560Z,59.75
2024-03-23T11:28:40.896Z,59.21
2024-03-23T11:31:07.218Z,58.58
2024-03-23T11:33:33.557Z,61.05
2024-03-23T11:36:00.104Z,60.48
2024-03-23T11:38:26.422Z,61.89
2024-03-23T11:40:52.984Z,63.31
2024-03-23T11:43:19.294Z,63.14
2024-03-23T11:45:45.645Z,62.10
2024-03-23T11:48:11.985Z,61.04
2024-03-23T11:50:38.299Z,60.09
2024-03-23T11:53:04.683Z,58.71
2024-03-23T11:55:30.984Z,57.17
2024-03-23T11:57:57.320Z,56.92
2024-03-23T12:00:23.657Z,58.40
2024-03-23T12:02:49.961Z,58.53
2024-03-23T12:05:16.378Z,59.55
2024-03-23T12:07:42.917Z,60.06
2024-03-23T12:10:09.214Z,61.74
2024-03-23T12:12:35.524Z,63.29
2024-03-23T12:15:01.890Z,62.71
2024-03-23T12:17:28.229Z,61.80
2024-03-23T12:19:54.531Z,61.01
2024-03-23T12:22:20.853Z,59.74
2024-03-23T12:24:47.164Z,59.87
2024-03-23T12:27:13.519Z,58.35
2024-03-23T12:29:39.869Z,57.06
2024-03-23T12:32:06.279Z,57.57
2024-03-23T12:34:32.616Z,58.29
2024-03-23T12:36:58.924Z,58.14
2024-03-23T12:39:25.225Z,60.59
2024-03-23T12:41:51.555Z,60.53
2024-03-23T12:44:18.837Z,60.05
2024-03-23T12:46:45.318Z,60.40
2024-03-23T12:49:14.680Z,60.15
2024-03-23T12:51:40.995Z,61.42
2024-03-23T12:54:07.500Z,62.51
2024-03-23T12:56:33.933Z,63.82
2024-03-23T12:59:00.239Z,62.33
2024-03-23T13:01:26.666Z,61.48
2024-03-23T13:03:52.982Z,60.55
2024-03-23T13:06:19.276Z,59.30
2024-03-23T13:08:45.595Z,56.88
2024-03-23T13:11:11.885Z,57.53
2024-03-23T13:13:38.174Z,57.91
2024-03-23T13:16:04.479Z,56.96
2024-03-23T13:18:30.783Z,58.40
2024-03-23T13:20:57.103Z,57.87
2024-03-23T13:23:23.415Z,58.96
2024-03-23T13:25:49.712Z,58.16
2024-03-23T13:28:16.048Z,59.28
2024-03-23T13:30:42.425Z,58.57
2024-03-23T13:33:08.762Z,58.77
2024-03-23T13:35:35.081Z,59.28
2024-03-23T13:38:01.415Z,59.56
2024-03-23T13:40:27.751Z,59.78
2024-03-23T13:42:54.078Z,60.59
2024-03-23T13:45:20.399Z,60.00
2024-03-23T13:47:46.784Z,59.96
2024-03-23T13:50:13.098Z,60.35
2024-03-23T13:52:39.407Z,60.16
2024-03-23T13:55:05.729Z,59.06
2024-03-23T13:57:32.054Z,58.86
2024-03-23T13:59:58.520Z,58.59
2024-03-23T14:02:24.823Z,59.76
2024-03-23T14:04:51.169Z,58.54
2024-03-23T14:07:17.493Z,58.56
2024-03-23T14:09:43.827Z,59.13
2024-03-23T14:12:10.145Z,59.26
2024-03-23T14:14:36.474Z,58.44
2024-03-23T14:17:02.809Z,59.94
2024-03-23T14:19:29.317Z,58.85
2024-03-23T14:21:55.624Z,58.32
2024-03-23T14:24:21.939Z,58.25
2024-03-23T14:26:48.280Z,57.03
2024-03-23T14:29:14.612Z,58.51
2024-03-23T14:31:41.068Z,57.08
2024-03-23T14:34:07.384Z,57.11
2024-03-23T14:36:33.694Z,57.94
2024-03-23T14:39:00.207Z,57.82
2024-03-23T14:41:26.505Z,58.18
2024-03-23T14:43:52.907Z,58.69
2024-03-23T14:46:19.218Z,57.49
2024-03-23T14:48:45.529Z,57.45
2024-03-23T14:51:11.869Z,57.90
2024-03-23T14:53:38.178Z,57.13
2024-03-23T14:56:04.513Z,56.75
2024-03-23T14:58:31.015Z,57.22
2024-03-23T15:00:57.350Z,56.23
2024-03-23T15:03:23.670Z,56.89
2024-03-23T15:05:50.015Z,55.01
2024-03-23T15:08:16.386Z,56.83
2024-03-23T15:10:42.683Z,55.94
2024-03-23T15:13:08.995Z,55.39
2024-03-23T15:15:35.306Z,55.71
2024-03-23T15:18:01.932Z,55.74
2024-03-23T15:20:28.235Z,57.06
2024-03-23T15:22:54.541Z,57.25
2024-03-23T15:25:20.863Z,57.57
2024-03-23T15:27:49.570Z,57.54
2024-03-23T15:30:17.945Z,57.00
2024-03-23T15:32:44.306Z,56.35
2024-03-23T15:35:10.596Z,56.77
2024-03-23T15:37:36.911Z,56.41
2024-03-23T15:40:03.221Z,56.65
2024-03-23T15:42:29.570Z,56.77
2024-03-23T15:44:55.889Z,57.41
2024-03-23T15:47:22.203Z,56.72
2024-03-23T15:49:48.533Z,56.66
2024-03-23T15:52:14.861Z,56.73
2024-03-23T15:54:41.157Z,57.20
2024-03-23T15:57:07.469Z,56.87
2024-03-23T15:59:33.922Z,56.80
2024-03-23T16:02:00.236Z,57.14
2024-03-23T16:04:26.563Z,57.26
2024-03-23T16:06:52.862Z,58.26
2024-03-23T16:09:19.194Z,57.94
2024-03-23T16:11:45.538Z,58.54
2024-03-23T16:14:11.849Z,58.64
2024-03-23T16:16:38.200Z,58.69
2024-03-23T16:19:04.514Z,58.77
2024-03-23T16:21:31.048Z,59.15
2024-03-23T16:23:57.376Z,59.09
2024-03-23T16:26:23.705Z,59.25
2024-03-23T16:28:50.050Z,59.30
2024-03-23T16:31:16.377Z,59.15
2024-03-23T16:33:42.717Z,59.35
2024-03-23T16:36:09.085Z,59.46
2024-03-23T16:38:35.599Z,59.45
2024-03-23T16:41:01.958Z,59.53
2024-03-23T16:43:28.277Z,59.31
2024-03-23T16:45:54.600Z,59.51
2024-03-23T16:48:20.917Z,59.55
2024-03-23T16:50:47.229Z,59.73
2024-03-23T16:53:13.538Z,60.02
2024-03-23T16:55:39.883Z,60.63
2024-03-23T16:58:06.366Z,60.77
2024-03-23T17:00:32.732Z,60.85
2024-03-23T17:02:59.159Z,61.02
2024-03-23T17:05:25.459Z,61.68
2024-03-23T17:07:51.773Z,62.05
2024-03-23T17:10:18.089Z,62.41
2024-03-23T17:12:44.448Z,62.11
2024-03-23T17:15:13.026Z,60.52
2024-03-23T17:17:41.045Z,58.26
2024-03-23T17:20:07.545Z,58.36
2024-03-23T17:22:33.862Z,59.46
2024-03-23T17:25:00.265Z,60.35
2024-03-23T17:27:26.668Z,62.35
2024-03-23T17:29:53.060Z,64.05
2024-03-23T17:32:19.366Z,62.91
2024-03-23T17:34:45.669Z,61.51
2024-03-23T17:37:12.003Z,60.68
2024-03-23T17:39:38.623Z,59.23
2024-03-23T17:42:04.947Z,59.39
2024-03-23T17:44:31.272Z,62.00
2024-03-23T17:46:57.603Z,64.22
2024-03-23T17:49:23.908Z,63.51
2024-03-23T17:51:50.289Z,62.64
2024-03-23T17:54:16.612Z,62.11
2024-03-23T17:56:42.928Z,61.45
2024-03-23T17:59:09.392Z,62.73
2024-03-23T18:01:35.724Z,63.03
2024-03-23T18:04:02.047Z,63.95
2024-03-23T18:06:28.396Z,63.38
2024-03-23T18:08:54.698Z,63.85
2024-03-23T18:11:20.989Z,64.07
2024-03-23T18:13:47.306Z,64.28
2024-03-23T18:16:16.220Z,65.82
2024-03-23T18:18:44.422Z,65.64
2024-03-23T18:21:10.728Z,64.64
2024-03-23T18:23:39.032Z,64.51
2024-03-23T18:26:05.512Z,64.12
2024-03-23T18:28:31.827Z,64.50
2024-03-23T18:30:58.143Z,64.23
2024-03-23T18:33:24.565Z,64.27
2024-03-23T18:35:50.897Z,64.53
2024-03-23T18:38:17.195Z,64.71
2024-03-23T18:40:43.510Z,65.29
2024-03-23T18:43:09.883Z,65.00
2024-03-23T18:45:36.214Z,65.04
2024-03-23T18:48:05.018Z,65.18
2024-03-23T18:50:31.719Z,65.50
2024-03-23T18:52:58.032Z,65.88
2024-03-23T18:55:24.589Z,66.86
2024-03-23T18:57:50.941Z,67.13
2024-03-23T19:00:17.244Z,66.68
2024-03-23T19:02:43.556Z,66.86
2024-03-23T19:05:09.962Z,67.01
2024-03-23T19:07:36.275Z,67.22
2024-03-23T19:10:02.925Z,67.55
2024-03-23T19:12:29.295Z,67.08
2024-03-23T19:14:55.654Z,67.29
2024-03-23T19:17:22.011Z,67.75
2024-03-23T19:19:49.147Z,67.73
2024-03-23T19:22:15.471Z,67.79
2024-03-23T19:24:42.011Z,67.79
2024-03-23T19:27:08.316Z,67.64
2024-03-23T19:29:34.624Z,67.77
2024-03-23T19:32:00.967Z,67.77
2024-03-23T19:34:27.278Z,68.08
2024-03-23T19:36:53.605Z,68.16
2024-03-23T19:39:19.912Z,68.07
2024-03-23T19:41:46.218Z,67.99
2024-03-23T19:44:12.712Z,68.00
2024-03-23T19:46:39.083Z,67.92
2024-03-23T19:49:05.413Z,67.71
2024-03-23T19:51:31.728Z,67.42
2024-03-23T19:53:58.567Z,67.22
2024-03-23T19:56:26.089Z,67.04
2024-03-23T19:58:52.439Z,66.86
2024-03-23T20:01:18.779Z,66.99
2024-03-23T20:03:45.083Z,66.80
2024-03-23T20:06:11.437Z,66.22
2024-03-23T20:08:37.751Z,65.52
2024-03-23T20:11:04.104Z,65.97
2024-03-23T20:13:30.402Z,66.31
2024-03-23T20:15:56.714Z,66.26
2024-03-23T20:18:23.069Z,64.09
2024-03-23T20:20:49.385Z,63.94
2024-03-23T20:23:15.707Z,64.82
2024-03-23T20:25:42.020Z,63.68
2024-03-23T20:28:08.331Z,63.40
2024-03-23T20:30:34.646Z,63.08
2024-03-23T20:33:00.951Z,63.67
2024-03-23T20:35:27.272Z,63.85
2024-03-23T20:37:53.557Z,63.60
2024-03-23T20:40:19.879Z,63.10
2024-03-23T20:42:46.205Z,62.25
2024-03-23T20:45:12.523Z,62.89
2024-03-23T20:47:38.830Z,63.50
2024-03-23T20:50:05.122Z,63.43
2024-03-23T20:52:31.436Z,62.86
2024-03-23T20:54:57.770Z,62.95
2024-03-23T20:57:24.105Z,63.21
2024-03-23T20:59:50.431Z,63.83
2024-03-23T21:02:16.819Z,64.42
2024-03-23T21:04:43.121Z,64.58
2024-03-23T21:07:09.443Z,64.71
2024-03-23T21:09:37.081Z,64.63
2024-03-23T21:12:04.562Z,65.33
2024-03-23T21:14:30.896Z,65.13
2024-03-23T21:16:57.184Z,64.95
2024-03-23T21:19:23.499Z,64.64
2024-03-23T21:21:49.807Z,64.45
2024-03-23T21:24:16.167Z,63.68
2024-03-23T21:26:42.501Z,62.70
2024-03-23T21:29:08.810Z,62.30
2024-03-23T21:31:35.145Z,61.73
2024-03-23T21:34:01.509Z,61.89
2024-03-23T21:36:27.812Z,62.26
2024-03-23T21:38:54.130Z,63.19
2024-03-23T21:41:20.454Z,63.59
2024-03-23T21:43:46.845Z,64.24
2024-03-23T21:46:13.293Z,64.22
2024-03-23T21:48:39.614Z,64.66
2024-03-23T21:51:06.003Z,65.07
2024-03-23T21:53:32.320Z,65.04
2024-03-23T21:55:58.641Z,64.47
2024-03-23T21:58:24.971Z,64.92
2024-03-23T22:00:51.299Z,64.90
2024-03-23T22:03:17.654Z,64.45
2024-03-23T22:05:43.998Z,65.27
2024-03-23T22:08:10.328Z,64.91
2024-03-23T22:10:39.604Z,64.69
2024-03-23T22:13:07.151Z,65.84
2024-03-23T22:15:33.498Z,66.21
2024-03-23T22:17:59.818Z,66.38
2024-03-23T22:20:26.124Z,66.19
2024-03-23T22:22:52.448Z,65.89
2024-03-23T22:25:18.871Z,66.28
2024-03-23T22:27:45.186Z,66.45
2024-03-23T22:30:11.494Z,66.68
2024-03-23T22:32:37.794Z,66.10
2024-03-23T22:35:04.108Z,65.57
2024-03-23T22:37:30.414Z,65.33
2024-03-23T22:39:56.736Z,66.13
2024-03-23T22:42:23.044Z,67.93
2024-03-23T22:44:49.332Z,67.16
2024-03-23T22:47:15.643Z,66.66
2024-03-23T22:49:41.954Z,66.29
2024-03-23T22:52:08.290Z,66.33
2024-03-23T22:54:34.595Z,66.76
2024-03-23T22:57:00.891Z,68.06
2024-03-23T22:59:27.219Z,67.70
2024-03-23T23:01:53.520Z,66.92
2024-03-23T23:04:19.891Z,66.51
2024-03-23T23:06:46.200Z,66.93
2024-03-23T23:09:12.502Z,66.88
2024-03-23T23:11:38.816Z,67.56
2024-03-23T23:14:05.132Z,68.19
2024-03-23T23:16:31.482Z,68.84
2024-03-23T23:18:57.859Z,68.38
2024-03-23T23:21:24.182Z,67.90
2024-03-23T23:23:50.830Z,67.64
2024-03-23T23:26:17.144Z,67.04
2024-03-23T23:28:43.439Z,67.67
2024-03-23T23:31:09.795Z,68.21
2024-03-23T23:33:36.122Z,68.18
2024-03-23T23:36:02.457Z,68.67
2024-03-23T23:38:28.794Z,69.70
2024-03-23T23:40:55.140Z,69.86
2024-03-23T23:43:21.586Z,68.80
2024-03-23T23:45:47.892Z,68.95
2024-03-23T23:48:14.233Z,67.91
2024-03-23T23:50:41.329Z,68.10
2024-03-23T23:53:07.754Z,68.86
2024-03-23T23:55:34.086Z,68.63
2024-03-23T23:58:00.417Z,68.92
